sensor_id;sensor_type;location;lat;lon;timestamp;pressure;altitude;pressure_sealevel;temperature;humidity
72423;BME280;60413;55.658;37.498;2023-01-09T00:01:52;100460.63;;;-16.03;100.00
72423;BME280;60413;55.658;37.498;2023-01-09T00:04:18;100476.53;;;-15.99;100.00
72423;BME280;60413;55.658;37.498;2023-01-09T00:06:44;100471.50;;;-16.01;100.00
72423;BME280;60413;55.658;37.498;2023-01-09T00:09:19;100468.25;;;-16.06;100.00
72423;BME280;60413;55.658;37.498;2023-01-09T00:11:46;100458.31;;;-16.12;100.00
72423;BME280;60413;55.658;37.498;2023-01-09T00:14:14;100457.66;;;-16.20;100.00
72423;BME280;60413;55.658;37.498;2023-01-09T00:16:40;100454.38;;;-16.24;100.00
72423;BME280;60413;55.658;37.498;2023-01-09T00:19:06;100467.22;;;-16.33;100.00
72423;BME280;60413;55.658;37.498;2023-01-09T00:21:31;100477.16;;;-16.27;100.00
72423;BME280;60413;55.658;37.498;2023-01-09T00:23:57;100445.69;;;-16.50;100.00
72423;BME280;60413;55.658;37.498;2023-01-09T00:26:23;100477.38;;;-16.36;100.00
72423;BME280;60413;55.658;37.498;2023-01-09T00:28:50;100487.44;;;-16.35;100.00
72423;BME280;60413;55.658;37.498;2023-01-09T00:31:17;100487.50;;;-16.38;100.00
72423;BME280;60413;55.658;37.498;2023-01-09T00:34:01;100487.69;;;-16.47;100.00
72423;BME280;60413;55.658;37.498;2023-01-09T00:36:28;100472.72;;;-16.55;100.00
72423;BME280;60413;55.658;37.498;2023-01-09T00:38:54;100475.31;;;-16.58;100.00
72423;BME280;60413;55.658;37.498;2023-01-09T00:41:23;100413.94;;;-16.98;100.00
72423;BME280;60413;55.658;37.498;2023-01-09T00:43:54;100468.75;;;-16.65;100.00
72423;BME280;60413;55.658;37.498;2023-01-09T00:46:30;100475.47;;;-16.66;100.00
72423;BME280;60413;55.658;37.498;2023-01-09T00:48:58;100468.97;;;-16.76;100.00
72423;BME280;60413;55.658;37.498;2023-01-09T00:51:27;100467.28;;;-16.77;100.00
72423;BME280;60413;55.658;37.498;2023-01-09T00:53:53;100458.28;;;-16.87;100.00
72423;BME280;60413;55.658;37.498;2023-01-09T00:56:20;100461.72;;;-16.90;100.00
72423;BME280;60413;55.658;37.498;2023-01-09T00:58:47;100441.78;;;-17.02;100.00
72423;BME280;60413;55.658;37.498;2023-01-09T01:01:13;100465.16;;;-16.94;100.00
72423;BME280;60413;55.658;37.498;2023-01-09T01:03:39;100472.69;;;-16.92;100.00
72423;BME280;60413;55.658;37.498;2023-01-09T01:06:05;100459.38;;;-16.99;100.00
72423;BME280;60413;55.658;37.498;2023-01-09T01:08:57;100465.16;;;-16.94;100.00
72423;BME280;60413;55.658;37.498;2023-01-09T01:11:23;100462.63;;;-16.94;100.00
72423;BME280;60413;55.658;37.498;2023-01-09T01:13:49;100461.09;;;-17.01;100.00
72423;BME280;60413;55.658;37.498;2023-01-09T01:16:14;100460.31;;;-17.03;100.00
72423;BME280;60413;55.658;37.498;2023-01-09T01:18:43;100472.81;;;-16.99;100.00
72423;BME280;60413;55.658;37.498;2023-01-09T01:21:11;100476.13;;;-16.96;100.00
72423;BME280;60413;55.658;37.498;2023-01-09T01:23:38;100459.44;;;-17.04;100.00
72423;BME280;60413;55.658;37.498;2023-01-09T01:26:10;100483.69;;;-16.96;100.00
72423;BME280;60413;55.658;37.498;2023-01-09T01:28:36;100471.25;;;-17.06;100.00
72423;BME280;60413;55.658;37.498;2023-01-09T01:31:02;100470.25;;;-16.97;100.00
72423;BME280;60413;55.658;37.498;2023-01-09T01:33:28;100480.28;;;-16.95;100.00
72423;BME280;60413;55.658;37.498;2023-01-09T01:36:05;100473.75;;;-17.04;100.00
72423;BME280;60413;55.658;37.498;2023-01-09T01:38:32;100453.88;;;-17.20;100.00
72423;BME280;60413;55.658;37.498;2023-01-09T01:40:59;100477.19;;;-17.07;100.00
72423;BME280;60413;55.658;37.498;2023-01-09T01:43:27;100486.31;;;-17.01;100.00
72423;BME280;60413;55.658;37.498;2023-01-09T01:45:53;100472.06;;;-17.04;100.00
72423;BME280;60413;55.658;37.498;2023-01-09T01:48:23;100472.19;;;-17.10;100.00
72423;BME280;60413;55.658;37.498;2023-01-09T01:51:01;100488.78;;;-17.00;100.00
72423;BME280;60413;55.658;37.498;2023-01-09T01:53:38;100463.31;;;-17.29;100.00
72423;BME280;60413;55.658;37.498;2023-01-09T02:01:31;100489.41;;;-17.32;100.00
72423;BME280;60413;55.658;37.498;2023-01-09T02:04:00;100482.22;;;-17.52;100.00
72423;BME280;60413;55.658;37.498;2023-01-09T02:06:27;100481.28;;;-17.48;100.00
72423;BME280;60413;55.658;37.498;2023-01-09T02:08:54;100496.44;;;-17.49;100.00
72423;BME280;60413;55.658;37.498;2023-01-09T02:11:21;100482.25;;;-17.55;100.00
72423;BME280;60413;55.658;37.498;2023-01-09T02:13:47;100477.38;;;-17.66;100.00
72423;BME280;60413;55.658;37.498;2023-01-09T02:30:24;100501.31;;;-17.40;100.00
72423;BME280;60413;55.658;37.498;2023-01-09T02:32:57;100467.38;;;-17.70;100.00
72423;BME280;60413;55.658;37.498;2023-01-09T02:41:23;100478.41;;;-17.76;100.00
72423;BME280;60413;55.658;37.498;2023-01-09T02:44:11;100482.91;;;-17.92;100.00
72423;BME280;60413;55.658;37.498;2023-01-09T02:46:37;100486.34;;;-17.99;100.00
72423;BME280;60413;55.658;37.498;2023-01-09T02:49:03;100456.69;;;-18.33;100.00
72423;BME280;60413;55.658;37.498;2023-01-09T03:00:05;100509.13;;;-18.05;100.00
72423;BME280;60413;55.658;37.498;2023-01-09T03:05:07;100509.94;;;-18.05;100.00
72423;BME280;60413;55.658;37.498;2023-01-09T03:10:26;100517.06;;;-18.33;100.00
72423;BME280;60413;55.658;37.498;2023-01-09T03:12:53;100516.25;;;-18.35;100.00
72423;BME280;60413;55.658;37.498;2023-01-09T03:15:23;100509.72;;;-18.49;100.00
72423;BME280;60413;55.658;37.498;2023-01-09T03:17:51;100524.03;;;-18.54;100.00
72423;BME280;60413;55.658;37.498;2023-01-09T03:20:21;100517.38;;;-18.59;100.00
72423;BME280;60413;55.658;37.498;2023-01-09T03:23:02;100534.91;;;-18.52;100.00
72423;BME280;60413;55.658;37.498;2023-01-09T03:25:30;100523.06;;;-18.42;100.00
72423;BME280;60413;55.658;37.498;2023-01-09T03:28:01;100511.28;;;-18.40;100.00
72423;BME280;60413;55.658;37.498;2023-01-09T03:30:29;100516.28;;;-18.37;100.00
72423;BME280;60413;55.658;37.498;2023-01-09T03:32:55;100525.56;;;-18.40;100.00
72423;BME280;60413;55.658;37.498;2023-01-09T03:35:22;100514.66;;;-18.42;100.00
72423;BME280;60413;55.658;37.498;2023-01-09T03:37:48;100522.09;;;-18.33;100.00
72423;BME280;60413;55.658;37.498;2023-01-09T03:40:17;100523.09;;;-18.45;100.00
72423;BME280;60413;55.658;37.498;2023-01-09T03:42:43;100534.66;;;-18.32;100.00
72423;BME280;60413;55.658;37.498;2023-01-09T03:45:09;100530.66;;;-18.47;100.00
72423;BME280;60413;55.658;37.498;2023-01-09T03:47:35;100510.78;;;-18.65;100.00
72423;BME280;60413;55.658;37.498;2023-01-09T03:50:04;100536.53;;;-18.48;100.00
72423;BME280;60413;55.658;37.498;2023-01-09T03:52:30;100514.13;;;-18.66;100.00
72423;BME280;60413;55.658;37.498;2023-01-09T03:54:56;100528.19;;;-18.51;100.00
72423;BME280;60413;55.658;37.498;2023-01-09T03:57:21;100520.75;;;-18.59;100.00
72423;BME280;60413;55.658;37.498;2023-01-09T03:59:48;100529.88;;;-18.50;100.00
72423;BME280;60413;55.658;37.498;2023-01-09T04:02:16;100531.63;;;-18.57;100.00
72423;BME280;60413;55.658;37.498;2023-01-09T04:04:42;100535.03;;;-18.64;100.00
72423;BME280;60413;55.658;37.498;2023-01-09T04:07:08;100537.50;;;-18.58;100.00
72423;BME280;60413;55.658;37.498;2023-01-09T04:09:34;100531.59;;;-18.55;100.00
72423;BME280;60413;55.658;37.498;2023-01-09T04:12:00;100546.75;;;-18.60;100.00
72423;BME280;60413;55.658;37.498;2023-01-09T04:14:26;100545.84;;;-18.56;100.00
72423;BME280;60413;55.658;37.498;2023-01-09T04:16:52;100535.84;;;-18.59;100.00
72423;BME280;60413;55.658;37.498;2023-01-09T04:19:17;100535.84;;;-18.59;100.00
72423;BME280;60413;55.658;37.498;2023-01-09T04:21:43;100547.56;;;-18.58;100.00
72423;BME280;60413;55.658;37.498;2023-01-09T04:24:09;100556.69;;;-18.51;100.00
72423;BME280;60413;55.658;37.498;2023-01-09T04:26:35;100561.00;;;-18.59;100.00
72423;BME280;60413;55.658;37.498;2023-01-09T04:29:00;100541.84;;;-18.71;100.00
72423;BME280;60413;55.658;37.498;2023-01-09T04:31:26;100547.75;;;-18.73;100.00
72423;BME280;60413;55.658;37.498;2023-01-09T04:33:52;100557.81;;;-18.73;100.00
72423;BME280;60413;55.658;37.498;2023-01-09T04:36:18;100549.41;;;-18.72;100.00
72423;BME280;60413;55.658;37.498;2023-01-09T04:38:44;100557.78;;;-18.70;100.00
72423;BME280;60413;55.658;37.498;2023-01-09T04:41:10;100577.06;;;-18.72;100.00
72423;BME280;60413;55.658;37.498;2023-01-09T04:43:55;100567.88;;;-18.76;100.00
72423;BME280;60413;55.658;37.498;2023-01-09T04:46:21;100548.75;;;-18.85;100.00
72423;BME280;60413;55.658;37.498;2023-01-09T04:48:47;100577.84;;;-18.67;100.00
72423;BME280;60413;55.658;37.498;2023-01-09T04:51:13;100562.75;;;-18.67;100.00
72423;BME280;60413;55.658;37.498;2023-01-09T04:53:39;100576.84;;;-18.52;100.00
72423;BME280;60413;55.658;37.498;2023-01-09T04:56:05;100553.44;;;-18.59;100.00
72423;BME280;60413;55.658;37.498;2023-01-09T04:58:31;100563.44;;;-18.56;100.00
72423;BME280;60413;55.658;37.498;2023-01-09T05:00:57;100563.44;;;-18.56;100.00
72423;BME280;60413;55.658;37.498;2023-01-09T05:03:23;100581.03;;;-18.54;100.00
72423;BME280;60413;55.658;37.498;2023-01-09T05:05:49;100562.63;;;-18.58;100.00
72423;BME280;60413;55.658;37.498;2023-01-09T05:08:15;100566.09;;;-18.65;100.00
72423;BME280;60413;55.658;37.498;2023-01-09T05:10:41;100571.91;;;-18.63;100.00
72423;BME280;60413;55.658;37.498;2023-01-09T05:13:06;100568.59;;;-18.63;100.00
72423;BME280;60413;55.658;37.498;2023-01-09T05:15:32;100572.75;;;-18.64;100.00
72423;BME280;60413;55.658;37.498;2023-01-09T05:17:58;100571.16;;;-18.68;100.00
72423;BME280;60413;55.658;37.498;2023-01-09T05:20:24;100593.03;;;-18.76;100.00
72423;BME280;60413;55.658;37.498;2023-01-09T05:22:50;100569.59;;;-18.78;100.00
72423;BME280;60413;55.658;37.498;2023-01-09T05:25:16;100595.47;;;-18.69;100.00
72423;BME280;60413;55.658;37.498;2023-01-09T05:31:47;100592.13;;;-18.71;100.00
72423;BME280;60413;55.658;37.498;2023-01-09T05:34:13;100576.44;;;-18.91;100.00
72423;BME280;60413;55.658;37.498;2023-01-09T05:36:39;100603.84;;;-18.70;100.00
72423;BME280;60413;55.658;37.498;2023-01-09T05:39:05;100587.25;;;-18.83;100.00
72423;BME280;60413;55.658;37.498;2023-01-09T05:41:31;100593.22;;;-18.92;100.00
72423;BME280;60413;55.658;37.498;2023-01-09T05:43:57;100596.53;;;-18.90;100.00
72423;BME280;60413;55.658;37.498;2023-01-09T05:46:23;100608.28;;;-18.89;100.00
72423;BME280;60413;55.658;37.498;2023-01-09T05:48:50;100610.78;;;-18.89;100.00
72423;BME280;60413;55.658;37.498;2023-01-09T05:51:16;100607.53;;;-19.00;100.00
72423;BME280;60413;55.658;37.498;2023-01-09T05:53:42;100612.59;;;-19.03;100.00
72423;BME280;60413;55.658;37.498;2023-01-09T05:56:07;100605.16;;;-19.12;100.00
72423;BME280;60413;55.658;37.498;2023-01-09T05:58:34;100616.88;;;-19.16;100.00
72423;BME280;60413;55.658;37.498;2023-01-09T06:01:00;100621.94;;;-19.17;100.00
72423;BME280;60413;55.658;37.498;2023-01-09T06:03:26;100616.09;;;-19.19;100.00
72423;BME280;60413;55.658;37.498;2023-01-09T06:05:51;100619.38;;;-19.13;100.00
72423;BME280;60413;55.658;37.498;2023-01-09T06:08:17;100638.69;;;-19.16;100.00
72423;BME280;60413;55.658;37.498;2023-01-09T06:10:45;100632.88;;;-19.22;100.00
72423;BME280;60413;55.658;37.498;2023-01-09T06:13:11;100632.78;;;-19.12;100.00
72423;BME280;60413;55.658;37.498;2023-01-09T06:15:37;100628.59;;;-19.10;100.00
72423;BME280;60413;55.658;37.498;2023-01-09T06:18:03;100634.28;;;-18.93;100.00
72423;BME280;60413;55.658;37.498;2023-01-09T06:20:30;100632.63;;;-18.92;100.00
72423;BME280;60413;55.658;37.498;2023-01-09T06:22:56;100637.56;;;-18.86;100.00
72423;BME280;60413;55.658;37.498;2023-01-09T06:25:22;100652.56;;;-18.78;100.00
72423;BME280;60413;55.658;37.498;2023-01-09T06:27:49;100647.41;;;-18.69;100.00
72423;BME280;60413;55.658;37.498;2023-01-09T06:30:20;100615.81;;;-18.89;100.00
72423;BME280;60413;55.658;37.498;2023-01-09T06:32:49;100647.50;;;-18.77;100.00
72423;BME280;60413;55.658;37.498;2023-01-09T06:35:15;100644.09;;;-18.71;100.00
72423;BME280;60413;55.658;37.498;2023-01-09T06:37:46;100640.75;;;-18.70;100.00
72423;BME280;60413;55.658;37.498;2023-01-09T06:40:12;100649.09;;;-18.68;100.00
72423;BME280;60413;55.658;37.498;2023-01-09T06:42:45;100647.28;;;-18.54;100.00
72423;BME280;60413;55.658;37.498;2023-01-09T06:45:11;100593.91;;;-18.79;100.00
72423;BME280;60413;55.658;37.498;2023-01-09T06:47:37;100657.25;;;-18.46;100.00
72423;BME280;60413;55.658;37.498;2023-01-09T06:50:04;100663.03;;;-18.39;100.00
72423;BME280;60413;55.658;37.498;2023-01-09T06:52:30;100658.88;;;-18.42;100.00
72423;BME280;60413;55.658;37.498;2023-01-09T06:54:58;100579.00;;;-18.96;100.00
72423;BME280;60413;55.658;37.498;2023-01-09T06:57:25;100681.41;;;-18.33;100.00
72423;BME280;60413;55.658;37.498;2023-01-09T06:59:54;100632.19;;;-18.54;100.00
72423;BME280;60413;55.658;37.498;2023-01-09T07:02:20;100593.13;;;-18.82;100.00
72423;BME280;60413;55.658;37.498;2023-01-09T07:04:50;100637.91;;;-18.42;100.00
72423;BME280;60413;55.658;37.498;2023-01-09T07:07:16;100612.88;;;-18.53;100.00
72423;BME280;60413;55.658;37.498;2023-01-09T07:09:42;100583.88;;;-18.80;100.00
72423;BME280;60413;55.658;37.498;2023-01-09T07:12:08;100622.91;;;-18.50;100.00
72423;BME280;60413;55.658;37.498;2023-01-09T07:14:35;100636.13;;;-18.34;100.00
72423;BME280;60413;55.658;37.498;2023-01-09T07:17:00;100636.06;;;-18.28;100.00
72423;BME280;60413;55.658;37.498;2023-01-09T07:19:26;100688.66;;;-18.06;100.00
72423;BME280;60413;55.658;37.498;2023-01-09T07:21:52;100624.47;;;-18.38;100.00
72423;BME280;60413;55.658;37.498;2023-01-09T07:24:18;100624.50;;;-18.41;100.00
72423;BME280;60413;55.658;37.498;2023-01-09T07:26:44;100602.78;;;-18.49;100.00
72423;BME280;60413;55.658;37.498;2023-01-09T07:29:12;100647.72;;;-18.21;100.00
72423;BME280;60413;55.658;37.498;2023-01-09T07:31:38;100648.56;;;-18.19;100.00
72423;BME280;60413;55.658;37.498;2023-01-09T07:34:04;100588.53;;;-18.51;100.00
72423;BME280;60413;55.658;37.498;2023-01-09T07:36:30;100681.59;;;-17.80;100.00
72423;BME280;60413;55.658;37.498;2023-01-09T07:38:56;100638.19;;;-17.96;100.00
72423;BME280;60413;55.658;37.498;2023-01-09T07:41:25;100609.16;;;-18.23;100.00
72423;BME280;60413;55.658;37.498;2023-01-09T07:43:55;100624.22;;;-18.20;100.00
72423;BME280;60413;55.658;37.498;2023-01-09T07:46:21;100605.78;;;-18.19;100.00
72423;BME280;60413;55.658;37.498;2023-01-09T07:48:49;100563.28;;;-18.40;100.00
72423;BME280;60413;55.658;37.498;2023-01-09T07:51:14;100657.50;;;-17.96;100.00
72423;BME280;60413;55.658;37.498;2023-01-09T07:53:40;100630.91;;;-18.17;100.00
72423;BME280;60413;55.658;37.498;2023-01-09T07:56:06;100666.94;;;-18.14;100.00
72423;BME280;60413;55.658;37.498;2023-01-09T07:58:32;100631.91;;;-18.31;100.00
72423;BME280;60413;55.658;37.498;2023-01-09T08:00:58;100670.34;;;-18.18;100.00
72423;BME280;60413;55.658;37.498;2023-01-09T08:03:27;100666.22;;;-18.22;100.00
72423;BME280;60413;55.658;37.498;2023-01-09T08:05:52;100614.28;;;-18.29;100.00
72423;BME280;60413;55.658;37.498;2023-01-09T08:08:18;100685.81;;;-17.82;100.00
72423;BME280;60413;55.658;37.498;2023-01-09T08:10:44;100673.94;;;-17.72;100.00
72423;BME280;60413;55.658;37.498;2023-01-09T08:13:11;100686.56;;;-17.75;100.00
72423;BME280;60413;55.658;37.498;2023-01-09T08:15:36;100672.34;;;-17.79;100.00
72423;BME280;60413;55.658;37.498;2023-01-09T08:18:02;100689.22;;;-17.86;100.00
72423;BME280;60413;55.658;37.498;2023-01-09T08:20:30;100680.06;;;-17.88;100.00
72423;BME280;60413;55.658;37.498;2023-01-09T08:22:56;100658.44;;;-18.05;100.00
72423;BME280;60413;55.658;37.498;2023-01-09T08:25:22;100695.69;;;-17.66;100.00
72423;BME280;60413;55.658;37.498;2023-01-09T08:28:01;100704.03;;;-17.63;100.00
72423;BME280;60413;55.658;37.498;2023-01-09T08:30:27;100687.66;;;-17.92;100.00
72423;BME280;60413;55.658;37.498;2023-01-09T08:32:53;100688.38;;;-17.85;100.00
72423;BME280;60413;55.658;37.498;2023-01-09T08:35:19;100694.38;;;-17.92;100.00
72423;BME280;60413;55.658;37.498;2023-01-09T08:37:46;100671.22;;;-18.20;100.00
72423;BME280;60413;55.658;37.498;2023-01-09T08:40:14;100697.22;;;-18.20;100.00
72423;BME280;60413;55.658;37.498;2023-01-09T08:42:40;100690.38;;;-18.08;100.00
72423;BME280;60413;55.658;37.498;2023-01-09T08:50:13;100685.66;;;-17.12;100.00
72423;BME280;60413;55.658;37.498;2023-01-09T08:52:39;100680.53;;;-17.07;100.00
72423;BME280;60413;55.658;37.498;2023-01-09T08:55:05;100687.47;;;-17.20;100.00
72423;BME280;60413;55.658;37.498;2023-01-09T08:57:31;100691.41;;;-17.04;100.00
72423;BME280;60413;55.658;37.498;2023-01-09T08:59:57;100684.19;;;-17.25;100.00
72423;BME280;60413;55.658;37.498;2023-01-09T09:02:23;100668.22;;;-17.26;100.00
72423;BME280;60413;55.658;37.498;2023-01-09T09:04:51;100661.81;;;-16.94;100.00
72423;BME280;60413;55.658;37.498;2023-01-09T09:07:18;100689.66;;;-16.99;100.00
72423;BME280;60413;55.658;37.498;2023-01-09T09:09:54;100677.56;;;-16.81;100.00
72423;BME280;60413;55.658;37.498;2023-01-09T09:12:21;100662.75;;;-16.98;100.00
72423;BME280;60413;55.658;37.498;2023-01-09T09:14:47;100674.56;;;-17.02;100.00
72423;BME280;60413;55.658;37.498;2023-01-09T09:17:31;100676.53;;;-17.21;100.00
72423;BME280;60413;55.658;37.498;2023-01-09T09:19:58;100677.16;;;-17.62;100.00
72423;BME280;60413;55.658;37.498;2023-01-09T09:22:25;100663.88;;;-17.74;100.00
72423;BME280;60413;55.658;37.498;2023-01-09T09:24:51;100672.50;;;-17.87;100.00
72423;BME280;60413;55.658;37.498;2023-01-09T09:27:17;100644.84;;;-17.92;100.00
72423;BME280;60413;55.658;37.498;2023-01-09T09:29:43;100660.63;;;-17.80;100.00
72423;BME280;60413;55.658;37.498;2023-01-09T09:32:10;100663.03;;;-17.74;100.00
72423;BME280;60413;55.658;37.498;2023-01-09T09:34:36;100634.00;;;-17.97;100.00
72423;BME280;60413;55.658;37.498;2023-01-09T09:37:02;100676.69;;;-17.89;100.00
72423;BME280;60413;55.658;37.498;2023-01-09T09:39:29;100684.50;;;-18.11;100.00
72423;BME280;60413;55.658;37.498;2023-01-09T09:55:51;100685.47;;;-18.21;100.00
72423;BME280;60413;55.658;37.498;2023-01-09T09:58:39;100643.56;;;-18.23;100.00
72423;BME280;60413;55.658;37.498;2023-01-09T10:01:06;100628.44;;;-18.20;100.00
72423;BME280;60413;55.658;37.498;2023-01-09T10:03:51;100617.56;;;-18.24;100.00
72423;BME280;60413;55.658;37.498;2023-01-09T10:06:28;100655.81;;;-17.97;100.00
72423;BME280;60413;55.658;37.498;2023-01-09T10:11:56;100644.88;;;-17.95;100.00
72423;BME280;60413;55.658;37.498;2023-01-09T10:14:23;100591.53;;;-18.20;100.00
72423;BME280;60413;55.658;37.498;2023-01-09T10:20:00;100688.66;;;-17.46;100.00
72423;BME280;60413;55.658;37.498;2023-01-09T10:25:49;100641.72;;;-18.11;100.00
72423;BME280;60413;55.658;37.498;2023-01-09T10:33:56;100714.16;;;-17.69;100.00
72423;BME280;60413;55.658;37.498;2023-01-09T10:36:52;100607.63;;;-18.35;100.00
72423;BME280;60413;55.658;37.498;2023-01-09T10:39:40;100721.69;;;-17.66;100.00
72423;BME280;60413;55.658;37.498;2023-01-09T10:42:17;100610.94;;;-18.31;100.00
72423;BME280;60413;55.658;37.498;2023-01-09T10:44:55;100618.72;;;-18.51;100.00
72423;BME280;60413;55.658;37.498;2023-01-09T10:47:37;100675.44;;;-18.24;100.00
72423;BME280;60413;55.658;37.498;2023-01-09T10:50:21;100670.41;;;-18.24;100.00
72423;BME280;60413;55.658;37.498;2023-01-09T10:52:50;100697.34;;;-18.32;100.00
72423;BME280;60413;55.658;37.498;2023-01-09T10:58:00;100670.81;;;-18.64;100.00
72423;BME280;60413;55.658;37.498;2023-01-09T11:00:30;100656.84;;;-18.87;100.00
72423;BME280;60413;55.658;37.498;2023-01-09T11:02:56;100645.25;;;-19.01;100.00
72423;BME280;60413;55.658;37.498;2023-01-09T11:05:31;100711.94;;;-18.65;100.00
72423;BME280;60413;55.658;37.498;2023-01-09T11:08:05;100654.53;;;-19.08;100.00
72423;BME280;60413;55.658;37.498;2023-01-09T11:10:48;100660.41;;;-19.11;100.00
72423;BME280;60413;55.658;37.498;2023-01-09T11:13:24;100707.72;;;-18.63;100.00
72423;BME280;60413;55.658;37.498;2023-01-09T11:18:25;100610.19;;;-19.14;100.00
72423;BME280;60413;55.658;37.498;2023-01-09T11:20:52;100648.53;;;-18.92;100.00
72423;BME280;60413;55.658;37.498;2023-01-09T11:23:31;100694.31;;;-18.65;100.00
72423;BME280;60413;55.658;37.498;2023-01-09T11:26:00;100641.78;;;-18.88;100.00
72423;BME280;60413;55.658;37.498;2023-01-09T11:28:27;100673.47;;;-18.76;100.00
72423;BME280;60413;55.658;37.498;2023-01-09T11:31:00;100705.16;;;-18.57;100.00
72423;BME280;60413;55.658;37.498;2023-01-09T11:33:29;100607.78;;;-19.26;100.00
72423;BME280;60413;55.658;37.498;2023-01-09T11:38:30;100641.94;;;-19.07;100.00
72423;BME280;60413;55.658;37.498;2023-01-09T11:41:00;100590.22;;;-19.31;100.00
72423;BME280;60413;55.658;37.498;2023-01-09T11:43:54;100721.13;;;-18.64;100.00
72423;BME280;60413;55.658;37.498;2023-01-09T11:46:43;100618.53;;;-19.12;100.00
72423;BME280;60413;55.658;37.498;2023-01-09T11:51:41;100600.25;;;-19.28;100.00
72423;BME280;60413;55.658;37.498;2023-01-09T11:54:31;100646.06;;;-18.98;100.00
72423;BME280;60413;55.658;37.498;2023-01-09T11:57:01;100601.91;;;-19.22;100.00
72423;BME280;60413;55.658;37.498;2023-01-09T11:59:29;100674.50;;;-18.96;100.00
72423;BME280;60413;55.658;37.498;2023-01-09T12:04:49;100700.97;;;-18.58;100.00
72423;BME280;60413;55.658;37.498;2023-01-09T12:13:54;100720.28;;;-18.61;100.00
72423;BME280;60413;55.658;37.498;2023-01-09T12:16:50;100726.06;;;-18.52;100.00
72423;BME280;60413;55.658;37.498;2023-01-09T12:19:35;100719.34;;;-18.53;100.00
72423;BME280;60413;55.658;37.498;2023-01-09T12:33:29;100673.59;;;-18.86;100.00
72423;BME280;60413;55.658;37.498;2023-01-09T12:53:17;100658.75;;;-19.15;100.00
72423;BME280;60413;55.658;37.498;2023-01-09T12:55:54;100645.47;;;-19.28;100.00
72423;BME280;60413;55.658;37.498;2023-01-09T13:00:56;100701.38;;;-19.04;100.00
72423;BME280;60413;55.658;37.498;2023-01-09T13:03:38;100720.53;;;-18.88;100.00
72423;BME280;60413;55.658;37.498;2023-01-09T13:06:12;100733.19;;;-19.00;100.00
72423;BME280;60413;55.658;37.498;2023-01-09T13:08:45;100689.03;;;-19.29;100.00
72423;BME280;60413;55.658;37.498;2023-01-09T13:11:23;100704.00;;;-19.16;100.00
72423;BME280;60413;55.658;37.498;2023-01-09T13:14:16;100713.16;;;-19.08;100.00
72423;BME280;60413;55.658;37.498;2023-01-09T13:16:50;100753.31;;;-19.05;100.00
72423;BME280;60413;55.658;37.498;2023-01-09T13:19:38;100726.59;;;-19.12;100.00
72423;BME280;60413;55.658;37.498;2023-01-09T13:22:06;100733.25;;;-19.11;100.00
72423;BME280;60413;55.658;37.498;2023-01-09T13:27:06;100733.34;;;-19.22;100.00
72423;BME280;60413;55.658;37.498;2023-01-09T13:29:37;100745.88;;;-19.15;100.00
72423;BME280;60413;55.658;37.498;2023-01-09T13:32:34;100754.31;;;-19.26;100.00
72423;BME280;60413;55.658;37.498;2023-01-09T13:35:03;100738.41;;;-19.29;100.00
72423;BME280;60413;55.658;37.498;2023-01-09T13:37:32;100755.13;;;-19.20;100.00
72423;BME280;60413;55.658;37.498;2023-01-09T13:40:45;100755.16;;;-19.25;100.00
72423;BME280;60413;55.658;37.498;2023-01-09T13:43:02;100755.97;;;-19.25;100.00
72423;BME280;60413;55.658;37.498;2023-01-09T13:45:33;100750.22;;;-19.39;100.00
72423;BME280;60413;55.658;37.498;2023-01-09T13:50:33;100763.59;;;-19.34;100.00
72423;BME280;60413;55.658;37.498;2023-01-09T13:58:30;100761.91;;;-19.38;100.00
72423;BME280;60413;55.658;37.498;2023-01-09T14:06:34;100745.22;;;-19.47;100.00
72423;BME280;60413;55.658;37.498;2023-01-09T14:09:17;100751.06;;;-19.42;100.00
72423;BME280;60413;55.658;37.498;2023-01-09T14:11:45;100728.56;;;-19.63;100.00
72423;BME280;60413;55.658;37.498;2023-01-09T14:14:30;100766.94;;;-19.38;100.00
72423;BME280;60413;55.658;37.498;2023-01-09T14:17:00;100763.59;;;-19.35;100.00
72423;BME280;60413;55.658;37.498;2023-01-09T14:19:36;100745.22;;;-19.47;100.00
72423;BME280;60413;55.658;37.498;2023-01-09T14:22:04;100686.03;;;-19.82;100.00
72423;BME280;60413;55.658;37.498;2023-01-09T14:24:44;100756.06;;;-19.35;100.00
72423;BME280;60413;55.658;37.498;2023-01-09T14:28:01;100707.75;;;-19.76;100.00
72423;BME280;60413;55.658;37.498;2023-01-09T14:38:48;100769.47;;;-19.41;100.00
72423;BME280;60413;55.658;37.498;2023-01-09T14:49:43;100756.16;;;-19.54;100.00
72423;BME280;60413;55.658;37.498;2023-01-09T14:52:21;100743.59;;;-19.55;100.00
72423;BME280;60413;55.658;37.498;2023-01-09T14:54:48;100769.50;;;-19.46;100.00
72423;BME280;60413;55.658;37.498;2023-01-09T14:57:32;100767.84;;;-19.56;100.00
72423;BME280;60413;55.658;37.498;2023-01-09T15:00:04;100751.97;;;-19.56;100.00
72423;BME280;60413;55.658;37.498;2023-01-09T15:02:33;100764.53;;;-19.58;100.00
72423;BME280;60413;55.658;37.498;2023-01-09T15:05:03;100771.22;;;-19.58;100.00
72423;BME280;60413;55.658;37.498;2023-01-09T15:07:32;100777.06;;;-19.56;100.00
72423;BME280;60413;55.658;37.498;2023-01-09T15:10:05;100721.16;;;-19.83;100.00
72423;BME280;60413;55.658;37.498;2023-01-09T15:12:32;100797.97;;;-19.50;100.00
72423;BME280;60413;55.658;37.498;2023-01-09T15:15:00;100761.19;;;-19.62;100.00